sensor_id;sensor_type;location;lat;lon;timestamp;P1;durP1;ratioP1;P2;durP2;ratioP2
26253;SDS011;53339;51.378;0.094;2022-12-29T00:01:43;7.30;;;1.80;;
26253;SDS011;53339;51.378;0.094;2022-12-29T00:04:14;9.23;;;1.52;;
26253;SDS011;53339;51.378;0.094;2022-12-29T00:06:42;13.55;;;2.88;;
26253;SDS011;53339;51.378;0.094;2022-12-29T00:09:10;8.02;;;1.70;;
26253;SDS011;53339;51.378;0.094;2022-12-29T00:11:39;13.80;;;2.33;;
26253;SDS011;53339;51.378;0.094;2022-12-29T00:14:10;17.17;;;2.47;;
26253;SDS011;53339;51.378;0.094;2022-12-29T00:16:57;10.40;;;1.90;;
26253;SDS011;53339;51.378;0.094;2022-12-29T00:19:24;8.48;;;2.55;;
26253;SDS011;53339;51.378;0.094;2022-12-29T00:22:11;4.63;;;2.00;;
26253;SDS011;53339;51.378;0.094;2022-12-29T00:24:58;6.18;;;1.88;;
26253;SDS011;53339;51.378;0.094;2022-12-29T00:27:35;11.20;;;2.45;;
26253;SDS011;53339;51.378;0.094;2022-12-29T00:30:25;10.75;;;1.77;;
26253;SDS011;53339;51.378;0.094;2022-12-29T00:33:12;10.98;;;2.00;;
26253;SDS011;53339;51.378;0.094;2022-12-29T00:38:44;8.88;;;1.88;;
26253;SDS011;53339;51.378;0.094;2022-12-29T00:41:37;8.30;;;1.80;;
26253;SDS011;53339;51.378;0.094;2022-12-29T00:44:23;13.80;;;2.83;;
26253;SDS011;53339;51.378;0.094;2022-12-29T00:46:50;9.73;;;2.20;;
26253;SDS011;53339;51.378;0.094;2022-12-29T00:49:18;17.15;;;2.90;;
26253;SDS011;53339;51.378;0.094;2022-12-29T00:52:08;10.13;;;1.90;;
26253;SDS011;53339;51.378;0.094;2022-12-29T00:54:37;11.95;;;2.13;;
26253;SDS011;53339;51.378;0.094;2022-12-29T00:57:07;8.35;;;1.83;;
26253;SDS011;53339;51.378;0.094;2022-12-29T00:59:39;6.70;;;1.90;;
26253;SDS011;53339;51.378;0.094;2022-12-29T01:02:09;11.60;;;2.50;;
26253;SDS011;53339;51.378;0.094;2022-12-29T01:04:37;10.57;;;2.47;;
26253;SDS011;53339;51.378;0.094;2022-12-29T01:07:04;10.85;;;3.00;;
26253;SDS011;53339;51.378;0.094;2022-12-29T01:09:32;7.75;;;2.10;;
26253;SDS011;53339;51.378;0.094;2022-12-29T01:12:18;10.23;;;2.40;;
26253;SDS011;53339;51.378;0.094;2022-12-29T01:15:08;7.22;;;2.45;;
26253;SDS011;53339;51.378;0.094;2022-12-29T01:17:37;10.30;;;2.90;;
26253;SDS011;53339;51.378;0.094;2022-12-29T01:20:04;8.65;;;1.83;;
26253;SDS011;53339;51.378;0.094;2022-12-29T01:22:32;6.47;;;2.00;;
26253;SDS011;53339;51.378;0.094;2022-12-29T01:25:00;9.90;;;2.15;;
26253;SDS011;53339;51.378;0.094;2022-12-29T01:27:27;10.35;;;1.95;;
26253;SDS011;53339;51.378;0.094;2022-12-29T01:29:55;7.90;;;2.42;;
26253;SDS011;53339;51.378;0.094;2022-12-29T01:32:22;8.80;;;2.05;;
26253;SDS011;53339;51.378;0.094;2022-12-29T01:34:50;8.85;;;2.47;;
26253;SDS011;53339;51.378;0.094;2022-12-29T01:37:17;10.75;;;3.17;;
26253;SDS011;53339;51.378;0.094;2022-12-29T01:39:45;12.63;;;2.03;;
26253;SDS011;53339;51.378;0.094;2022-12-29T01:42:16;9.15;;;2.08;;
26253;SDS011;53339;51.378;0.094;2022-12-29T01:44:50;13.60;;;3.05;;
26253;SDS011;53339;51.378;0.094;2022-12-29T01:47:29;17.83;;;2.00;;
26253;SDS011;53339;51.378;0.094;2022-12-29T01:52:51;5.72;;;2.20;;
26253;SDS011;53339;51.378;0.094;2022-12-29T01:55:34;8.50;;;1.85;;
26253;SDS011;53339;51.378;0.094;2022-12-29T01:58:17;15.70;;;3.22;;
26253;SDS011;53339;51.378;0.094;2022-12-29T02:00:49;12.82;;;2.25;;
26253;SDS011;53339;51.378;0.094;2022-12-29T02:03:17;6.15;;;2.38;;
26253;SDS011;53339;51.378;0.094;2022-12-29T02:05:49;7.68;;;2.20;;
26253;SDS011;53339;51.378;0.094;2022-12-29T02:08:21;10.07;;;2.55;;
26253;SDS011;53339;51.378;0.094;2022-12-29T02:10:53;6.55;;;2.53;;
26253;SDS011;53339;51.378;0.094;2022-12-29T02:13:25;9.30;;;2.85;;
26253;SDS011;53339;51.378;0.094;2022-12-29T02:15:56;11.52;;;1.98;;
26253;SDS011;53339;51.378;0.094;2022-12-29T02:22:10;14.85;;;2.65;;
26253;SDS011;53339;51.378;0.094;2022-12-29T02:27:52;11.25;;;2.50;;
26253;SDS011;53339;51.378;0.094;2022-12-29T02:30:40;8.00;;;2.00;;
26253;SDS011;53339;51.378;0.094;2022-12-29T02:41:31;14.77;;;3.17;;
26253;SDS011;53339;51.378;0.094;2022-12-29T02:46:43;11.73;;;2.25;;
26253;SDS011;53339;51.378;0.094;2022-12-29T02:49:25;13.30;;;2.55;;
26253;SDS011;53339;51.378;0.094;2022-12-29T02:54:37;14.27;;;2.28;;
26253;SDS011;53339;51.378;0.094;2022-12-29T02:57:14;14.95;;;2.40;;
26253;SDS011;53339;51.378;0.094;2022-12-29T03:00:00;8.73;;;2.00;;
26253;SDS011;53339;51.378;0.094;2022-12-29T03:10:35;18.38;;;3.35;;
26253;SDS011;53339;51.378;0.094;2022-12-29T03:16:23;13.20;;;3.13;;
26253;SDS011;53339;51.378;0.094;2022-12-29T03:19:06;7.05;;;1.85;;
26253;SDS011;53339;51.378;0.094;2022-12-29T03:21:43;6.43;;;1.95;;
26253;SDS011;53339;51.378;0.094;2022-12-29T03:24:41;11.85;;;2.42;;
26253;SDS011;53339;51.378;0.094;2022-12-29T03:27:14;11.73;;;2.45;;
26253;SDS011;53339;51.378;0.094;2022-12-29T03:29:47;10.45;;;2.85;;
26253;SDS011;53339;51.378;0.094;2022-12-29T03:32:20;14.90;;;2.70;;
26253;SDS011;53339;51.378;0.094;2022-12-29T03:34:52;9.10;;;2.22;;
26253;SDS011;53339;51.378;0.094;2022-12-29T03:37:22;11.52;;;2.30;;
26253;SDS011;53339;51.378;0.094;2022-12-29T03:39:52;10.50;;;2.95;;
26253;SDS011;53339;51.378;0.094;2022-12-29T03:42:21;17.30;;;2.85;;
26253;SDS011;53339;51.378;0.094;2022-12-29T03:44:55;15.75;;;3.38;;
26253;SDS011;53339;51.378;0.094;2022-12-29T03:47:24;19.92;;;2.08;;
26253;SDS011;53339;51.378;0.094;2022-12-29T03:49:53;10.00;;;2.63;;
26253;SDS011;53339;51.378;0.094;2022-12-29T03:52:21;11.60;;;2.47;;
26253;SDS011;53339;51.378;0.094;2022-12-29T03:54:51;10.38;;;2.88;;
26253;SDS011;53339;51.378;0.094;2022-12-29T03:57:18;10.40;;;2.78;;
26253;SDS011;53339;51.378;0.094;2022-12-29T03:59:56;10.57;;;3.20;;
26253;SDS011;53339;51.378;0.094;2022-12-29T04:02:23;13.48;;;3.60;;
26253;SDS011;53339;51.378;0.094;2022-12-29T04:04:52;9.48;;;2.28;;
26253;SDS011;53339;51.378;0.094;2022-12-29T04:07:19;10.73;;;2.35;;
26253;SDS011;53339;51.378;0.094;2022-12-29T04:09:52;12.65;;;2.83;;
26253;SDS011;53339;51.378;0.094;2022-12-29T04:12:23;13.00;;;2.65;;
26253;SDS011;53339;51.378;0.094;2022-12-29T04:14:51;18.63;;;3.03;;
26253;SDS011;53339;51.378;0.094;2022-12-29T04:17:18;11.23;;;2.35;;
26253;SDS011;53339;51.378;0.094;2022-12-29T04:22:16;13.75;;;2.80;;
26253;SDS011;53339;51.378;0.094;2022-12-29T04:24:44;9.40;;;2.45;;
26253;SDS011;53339;51.378;0.094;2022-12-29T04:27:12;18.10;;;2.92;;
26253;SDS011;53339;51.378;0.094;2022-12-29T04:30:08;11.88;;;3.33;;
26253;SDS011;53339;51.378;0.094;2022-12-29T04:32:52;8.18;;;1.77;;
26253;SDS011;53339;51.378;0.094;2022-12-29T04:35:20;13.38;;;2.38;;
26253;SDS011;53339;51.378;0.094;2022-12-29T04:37:48;17.83;;;3.00;;
26253;SDS011;53339;51.378;0.094;2022-12-29T04:40:15;12.95;;;2.92;;
26253;SDS011;53339;51.378;0.094;2022-12-29T04:42:43;13.15;;;3.20;;
26253;SDS011;53339;51.378;0.094;2022-12-29T04:45:11;14.70;;;3.58;;
26253;SDS011;53339;51.378;0.094;2022-12-29T04:47:57;12.52;;;3.08;;
26253;SDS011;53339;51.378;0.094;2022-12-29T04:50:48;8.77;;;2.58;;
26253;SDS011;53339;51.378;0.094;2022-12-29T04:53:18;8.77;;;2.17;;
26253;SDS011;53339;51.378;0.094;2022-12-29T04:55:50;17.08;;;3.72;;
26253;SDS011;53339;51.378;0.094;2022-12-29T04:58:19;11.35;;;3.20;;
26253;SDS011;53339;51.378;0.094;2022-12-29T05:00:50;5.90;;;2.05;;
26253;SDS011;53339;51.378;0.094;2022-12-29T05:03:22;13.63;;;2.97;;
26253;SDS011;53339;51.378;0.094;2022-12-29T05:05:52;10.73;;;2.47;;
26253;SDS011;53339;51.378;0.094;2022-12-29T05:08:21;14.27;;;2.53;;
26253;SDS011;53339;51.378;0.094;2022-12-29T05:10:54;7.55;;;1.55;;
26253;SDS011;53339;51.378;0.094;2022-12-29T05:13:22;9.20;;;2.53;;
26253;SDS011;53339;51.378;0.094;2022-12-29T05:15:51;13.70;;;2.15;;
26253;SDS011;53339;51.378;0.094;2022-12-29T05:18:21;9.68;;;2.95;;
26253;SDS011;53339;51.378;0.094;2022-12-29T05:20:49;10.25;;;2.95;;
26253;SDS011;53339;51.378;0.094;2022-12-29T05:23:19;7.85;;;1.88;;
26253;SDS011;53339;51.378;0.094;2022-12-29T05:25:53;12.85;;;2.78;;
26253;SDS011;53339;51.378;0.094;2022-12-29T05:28:28;20.58;;;2.60;;
26253;SDS011;53339;51.378;0.094;2022-12-29T05:31:18;19.88;;;2.88;;
26253;SDS011;53339;51.378;0.094;2022-12-29T05:33:48;14.07;;;2.58;;
26253;SDS011;53339;51.378;0.094;2022-12-29T05:36:16;11.77;;;2.47;;
26253;SDS011;53339;51.378;0.094;2022-12-29T05:38:49;7.53;;;3.08;;
26253;SDS011;53339;51.378;0.094;2022-12-29T05:41:17;10.93;;;2.17;;
26253;SDS011;53339;51.378;0.094;2022-12-29T05:44:03;12.18;;;2.65;;
26253;SDS011;53339;51.378;0.094;2022-12-29T05:47:03;20.90;;;2.60;;
26253;SDS011;53339;51.378;0.094;2022-12-29T05:49:42;9.13;;;2.30;;
26253;SDS011;53339;51.378;0.094;2022-12-29T05:52:48;5.28;;;2.00;;
26253;SDS011;53339;51.378;0.094;2022-12-29T05:55:16;10.23;;;2.15;;
26253;SDS011;53339;51.378;0.094;2022-12-29T05:57:45;13.88;;;2.45;;
26253;SDS011;53339;51.378;0.094;2022-12-29T06:00:15;9.05;;;2.28;;
26253;SDS011;53339;51.378;0.094;2022-12-29T06:02:44;8.63;;;3.08;;
26253;SDS011;53339;51.378;0.094;2022-12-29T06:05:12;6.95;;;1.70;;
26253;SDS011;53339;51.378;0.094;2022-12-29T06:07:40;10.35;;;1.83;;
26253;SDS011;53339;51.378;0.094;2022-12-29T06:10:08;7.30;;;1.75;;
26253;SDS011;53339;51.378;0.094;2022-12-29T06:12:42;4.00;;;1.40;;
26253;SDS011;53339;51.378;0.094;2022-12-29T06:15:10;6.30;;;1.75;;
26253;SDS011;53339;51.378;0.094;2022-12-29T06:17:39;3.10;;;1.63;;
26253;SDS011;53339;51.378;0.094;2022-12-29T06:20:08;6.55;;;1.60;;
26253;SDS011;53339;51.378;0.094;2022-12-29T06:22:37;4.15;;;1.80;;
26253;SDS011;53339;51.378;0.094;2022-12-29T06:25:05;5.53;;;1.50;;
26253;SDS011;53339;51.378;0.094;2022-12-29T06:27:34;11.05;;;2.17;;
26253;SDS011;53339;51.378;0.094;2022-12-29T06:30:02;8.55;;;1.75;;
26253;SDS011;53339;51.378;0.094;2022-12-29T06:32:30;3.60;;;1.70;;
26253;SDS011;53339;51.378;0.094;2022-12-29T06:35:04;4.63;;;1.50;;
26253;SDS011;53339;51.378;0.094;2022-12-29T06:37:39;3.22;;;1.73;;
26253;SDS011;53339;51.378;0.094;2022-12-29T06:40:07;3.13;;;1.77;;
26253;SDS011;53339;51.378;0.094;2022-12-29T06:42:54;9.15;;;2.30;;
26253;SDS011;53339;51.378;0.094;2022-12-29T06:45:41;4.10;;;1.67;;
26253;SDS011;53339;51.378;0.094;2022-12-29T06:48:09;5.15;;;0.93;;
26253;SDS011;53339;51.378;0.094;2022-12-29T06:50:37;6.07;;;1.48;;
26253;SDS011;53339;51.378;0.094;2022-12-29T06:53:04;5.97;;;2.08;;
26253;SDS011;53339;51.378;0.094;2022-12-29T06:55:32;4.30;;;1.77;;
26253;SDS011;53339;51.378;0.094;2022-12-29T06:57:59;3.08;;;1.33;;
26253;SDS011;53339;51.378;0.094;2022-12-29T07:00:28;4.40;;;2.08;;
26253;SDS011;53339;51.378;0.094;2022-12-29T07:02:55;3.47;;;1.35;;
26253;SDS011;53339;51.378;0.094;2022-12-29T07:05:26;2.22;;;2.05;;
26253;SDS011;53339;51.378;0.094;2022-12-29T07:07:58;10.07;;;1.63;;
26253;SDS011;53339;51.378;0.094;2022-12-29T07:10:26;2.90;;;1.15;;
26253;SDS011;53339;51.378;0.094;2022-12-29T07:12:54;0.80;;;0.50;;
26253;SDS011;53339;51.378;0.094;2022-12-29T07:15:21;5.55;;;1.65;;
26253;SDS011;53339;51.378;0.094;2022-12-29T07:17:49;5.88;;;1.30;;
26253;SDS011;53339;51.378;0.094;2022-12-29T07:20:16;2.10;;;1.50;;
26253;SDS011;53339;51.378;0.094;2022-12-29T07:22:50;3.55;;;1.60;;
26253;SDS011;53339;51.378;0.094;2022-12-29T07:25:18;2.42;;;1.45;;
26253;SDS011;53339;51.378;0.094;2022-12-29T07:27:45;3.30;;;1.45;;
26253;SDS011;53339;51.378;0.094;2022-12-29T07:30:12;6.47;;;1.50;;
26253;SDS011;53339;51.378;0.094;2022-12-29T07:32:40;3.38;;;1.48;;
26253;SDS011;53339;51.378;0.094;2022-12-29T07:35:08;4.28;;;1.38;;
26253;SDS011;53339;51.378;0.094;2022-12-29T07:37:36;4.72;;;1.55;;
26253;SDS011;53339;51.378;0.094;2022-12-29T07:40:03;2.53;;;1.83;;
26253;SDS011;53339;51.378;0.094;2022-12-29T07:42:31;1.95;;;1.60;;
26253;SDS011;53339;51.378;0.094;2022-12-29T07:44:59;5.20;;;0.70;;
26253;SDS011;53339;51.378;0.094;2022-12-29T07:47:36;3.88;;;1.85;;
26253;SDS011;53339;51.378;0.094;2022-12-29T07:50:03;2.88;;;1.08;;
26253;SDS011;53339;51.378;0.094;2022-12-29T07:52:31;2.28;;;1.23;;
26253;SDS011;53339;51.378;0.094;2022-12-29T07:54:59;2.70;;;1.48;;
26253;SDS011;53339;51.378;0.094;2022-12-29T07:57:26;8.57;;;1.25;;
26253;SDS011;53339;51.378;0.094;2022-12-29T07:59:58;1.55;;;1.45;;
26253;SDS011;53339;51.378;0.094;2022-12-29T08:02:25;4.22;;;1.52;;
26253;SDS011;53339;51.378;0.094;2022-12-29T08:04:53;3.17;;;1.30;;
26253;SDS011;53339;51.378;0.094;2022-12-29T08:07:21;3.30;;;1.77;;
26253;SDS011;53339;51.378;0.094;2022-12-29T08:09:48;3.33;;;1.92;;
26253;SDS011;53339;51.378;0.094;2022-12-29T08:12:16;2.58;;;1.67;;
26253;SDS011;53339;51.378;0.094;2022-12-29T08:14:44;5.38;;;1.92;;
26253;SDS011;53339;51.378;0.094;2022-12-29T08:17:11;8.95;;;1.23;;
26253;SDS011;53339;51.378;0.094;2022-12-29T08:19:39;1.58;;;0.65;;
26253;SDS011;53339;51.378;0.094;2022-12-29T08:22:06;2.72;;;0.80;;
26253;SDS011;53339;51.378;0.094;2022-12-29T08:24:34;3.67;;;1.02;;
26253;SDS011;53339;51.378;0.094;2022-12-29T08:27:02;3.88;;;1.75;;
26253;SDS011;53339;51.378;0.094;2022-12-29T08:29:39;3.67;;;1.00;;
26253;SDS011;53339;51.378;0.094;2022-12-29T08:32:06;4.22;;;1.55;;
26253;SDS011;53339;51.378;0.094;2022-12-29T08:34:34;2.53;;;1.05;;
26253;SDS011;53339;51.378;0.094;2022-12-29T08:37:01;7.47;;;1.15;;
26253;SDS011;53339;51.378;0.094;2022-12-29T08:39:29;3.17;;;1.52;;
26253;SDS011;53339;51.378;0.094;2022-12-29T08:41:56;2.00;;;1.10;;
26253;SDS011;53339;51.378;0.094;2022-12-29T08:44:23;6.80;;;1.75;;
26253;SDS011;53339;51.378;0.094;2022-12-29T08:46:51;3.28;;;1.58;;
26253;SDS011;53339;51.378;0.094;2022-12-29T08:49:19;7.28;;;1.15;;
26253;SDS011;53339;51.378;0.094;2022-12-29T08:51:46;3.20;;;1.00;;
26253;SDS011;53339;51.378;0.094;2022-12-29T08:54:13;4.07;;;1.92;;
26253;SDS011;53339;51.378;0.094;2022-12-29T08:56:41;1.40;;;1.30;;
26253;SDS011;53339;51.378;0.094;2022-12-29T08:59:09;3.65;;;1.52;;
26253;SDS011;53339;51.378;0.094;2022-12-29T09:01:37;4.88;;;2.00;;
26253;SDS011;53339;51.378;0.094;2022-12-29T09:04:07;3.10;;;1.30;;
26253;SDS011;53339;51.378;0.094;2022-12-29T09:06:41;4.63;;;2.10;;
26253;SDS011;53339;51.378;0.094;2022-12-29T09:09:09;2.45;;;1.42;;
26253;SDS011;53339;51.378;0.094;2022-12-29T09:11:37;3.40;;;1.77;;
26253;SDS011;53339;51.378;0.094;2022-12-29T09:14:05;6.03;;;1.45;;
26253;SDS011;53339;51.378;0.094;2022-12-29T09:16:33;4.70;;;1.23;;
26253;SDS011;53339;51.378;0.094;2022-12-29T09:19:01;3.50;;;1.27;;
26253;SDS011;53339;51.378;0.094;2022-12-29T09:21:29;7.72;;;1.15;;
26253;SDS011;53339;51.378;0.094;2022-12-29T09:23:56;6.15;;;2.00;;
26253;SDS011;53339;51.378;0.094;2022-12-29T09:26:24;5.72;;;1.55;;
26253;SDS011;53339;51.378;0.094;2022-12-29T09:28:51;2.65;;;1.80;;
26253;SDS011;53339;51.378;0.094;2022-12-29T09:31:19;2.90;;;1.33;;
26253;SDS011;53339;51.378;0.094;2022-12-29T09:33:46;3.90;;;1.30;;
26253;SDS011;53339;51.378;0.094;2022-12-29T09:36:14;2.92;;;1.27;;
26253;SDS011;53339;51.378;0.094;2022-12-29T09:38:41;1.88;;;1.05;;
26253;SDS011;53339;51.378;0.094;2022-12-29T09:41:18;4.47;;;1.35;;
26253;SDS011;53339;51.378;0.094;2022-12-29T09:44:16;4.80;;;1.38;;
26253;SDS011;53339;51.378;0.094;2022-12-29T09:47:00;3.97;;;1.52;;
26253;SDS011;53339;51.378;0.094;2022-12-29T09:49:34;2.10;;;1.50;;
26253;SDS011;53339;51.378;0.094;2022-12-29T09:52:11;4.18;;;2.22;;
26253;SDS011;53339;51.378;0.094;2022-12-29T09:54:45;2.20;;;1.02;;
26253;SDS011;53339;51.378;0.094;2022-12-29T09:57:40;2.50;;;1.50;;
26253;SDS011;53339;51.378;0.094;2022-12-29T10:00:13;4.47;;;1.75;;
26253;SDS011;53339;51.378;0.094;2022-12-29T10:02:44;6.32;;;1.27;;
26253;SDS011;53339;51.378;0.094;2022-12-29T10:05:36;5.07;;;1.25;;
26253;SDS011;53339;51.378;0.094;2022-12-29T10:08:31;3.38;;;1.85;;
26253;SDS011;53339;51.378;0.094;2022-12-29T10:19:37;4.53;;;1.30;;
26253;SDS011;53339;51.378;0.094;2022-12-29T10:22:38;2.75;;;1.50;;
26253;SDS011;53339;51.378;0.094;2022-12-29T10:25:17;6.20;;;1.38;;
26253;SDS011;53339;51.378;0.094;2022-12-29T10:27:47;3.60;;;1.50;;
26253;SDS011;53339;51.378;0.094;2022-12-29T10:30:16;2.05;;;1.10;;
26253;SDS011;53339;51.378;0.094;2022-12-29T10:35:28;1.35;;;0.82;;
26253;SDS011;53339;51.378;0.094;2022-12-29T10:38:01;2.63;;;1.90;;
26253;SDS011;53339;51.378;0.094;2022-12-29T10:40:57;2.42;;;1.83;;
26253;SDS011;53339;51.378;0.094;2022-12-29T10:46:14;2.58;;;1.10;;
26253;SDS011;53339;51.378;0.094;2022-12-29T10:48:46;5.65;;;1.48;;
26253;SDS011;53339;51.378;0.094;2022-12-29T10:51:33;3.22;;;1.00;;
26253;SDS011;53339;51.378;0.094;2022-12-29T10:54:05;1.30;;;0.88;;
26253;SDS011;53339;51.378;0.094;2022-12-29T10:56:39;2.25;;;1.35;;
26253;SDS011;53339;51.378;0.094;2022-12-29T10:59:22;2.88;;;1.80;;
26253;SDS011;53339;51.378;0.094;2022-12-29T11:09:52;4.45;;;2.05;;
26253;SDS011;53339;51.378;0.094;2022-12-29T11:15:24;3.30;;;1.38;;
26253;SDS011;53339;51.378;0.094;2022-12-29T11:17:48;2.30;;;1.20;;
26253;SDS011;53339;51.378;0.094;2022-12-29T11:20:27;3.67;;;1.40;;
26253;SDS011;53339;51.378;0.094;2022-12-29T11:22:55;1.70;;;1.20;;
26253;SDS011;53339;51.378;0.094;2022-12-29T11:25:22;2.75;;;1.00;;
26253;SDS011;53339;51.378;0.094;2022-12-29T11:30:41;3.20;;;1.33;;
26253;SDS011;53339;51.378;0.094;2022-12-29T11:33:09;2.17;;;1.40;;
26253;SDS011;53339;51.378;0.094;2022-12-29T11:35:41;5.82;;;2.78;;
26253;SDS011;53339;51.378;0.094;2022-12-29T11:38:18;2.83;;;1.52;;
26253;SDS011;53339;51.378;0.094;2022-12-29T11:40:48;2.33;;;1.10;;
26253;SDS011;53339;51.378;0.094;2022-12-29T11:43:22;4.22;;;1.90;;
26253;SDS011;53339;51.378;0.094;2022-12-29T11:45:53;3.33;;;1.23;;
26253;SDS011;53339;51.378;0.094;2022-12-29T11:48:23;5.78;;;1.63;;
26253;SDS011;53339;51.378;0.094;2022-12-29T11:50:55;2.10;;;0.98;;
26253;SDS011;53339;51.378;0.094;2022-12-29T11:53:32;2.25;;;1.90;;
26253;SDS011;53339;51.378;0.094;2022-12-29T11:56:10;3.13;;;1.05;;
26253;SDS011;53339;51.378;0.094;2022-12-29T11:58:42;3.70;;;0.95;;
26253;SDS011;53339;51.378;0.094;2022-12-29T12:01:14;5.43;;;1.75;;
26253;SDS011;53339;51.378;0.094;2022-12-29T12:06:25;10.98;;;1.83;;
26253;SDS011;53339;51.378;0.094;2022-12-29T12:08:57;3.08;;;1.10;;
26253;SDS011;53339;51.378;0.094;2022-12-29T12:11:31;6.72;;;1.23;;
26253;SDS011;53339;51.378;0.094;2022-12-29T12:14:15;4.32;;;2.30;;
26253;SDS011;53339;51.378;0.094;2022-12-29T12:17:21;3.47;;;1.17;;
26253;SDS011;53339;51.378;0.094;2022-12-29T12:22:46;4.28;;;1.58;;
26253;SDS011;53339;51.378;0.094;2022-12-29T12:25:37;6.45;;;2.10;;
26253;SDS011;53339;51.378;0.094;2022-12-29T12:28:57;4.25;;;1.40;;
26253;SDS011;53339;51.378;0.094;2022-12-29T12:31:02;3.58;;;1.30;;
26253;SDS011;53339;51.378;0.094;2022-12-29T12:33:38;4.50;;;1.13;;
26253;SDS011;53339;51.378;0.094;2022-12-29T12:36:27;6.47;;;1.90;;
26253;SDS011;53339;51.378;0.094;2022-12-29T12:39:17;5.00;;;1.48;;
26253;SDS011;53339;51.378;0.094;2022-12-29T12:50:40;6.28;;;1.85;;
26253;SDS011;53339;51.378;0.094;2022-12-29T12:58:37;8.00;;;1.65;;
26253;SDS011;53339;51.378;0.094;2022-12-29T13:10:05;5.57;;;1.38;;
26253;SDS011;53339;51.378;0.094;2022-12-29T13:23:50;7.13;;;1.83;;
26253;SDS011;53339;51.378;0.094;2022-12-29T13:26:29;4.10;;;1.30;;
26253;SDS011;53339;51.378;0.094;2022-12-29T13:37:20;7.38;;;1.58;;
26253;SDS011;53339;51.378;0.094;2022-12-29T13:39:55;6.32;;;1.83;;
26253;SDS011;53339;51.378;0.094;2022-12-29T13:42:50;6.03;;;1.38;;
26253;SDS011;53339;51.378;0.094;2022-12-29T13:45:20;5.43;;;1.92;;
26253;SDS011;53339;51.378;0.094;2022-12-29T13:47:59;4.68;;;1.35;;
26253;SDS011;53339;51.378;0.094;2022-12-29T13:50:53;2.97;;;1.35;;
26253;SDS011;53339;51.378;0.094;2022-12-29T13:53:34;3.95;;;1.50;;
26253;SDS011;53339;51.378;0.094;2022-12-29T13:56:21;3.90;;;1.38;;
26253;SDS011;53339;51.378;0.094;2022-12-29T13:59:08;4.70;;;1.75;;
26253;SDS011;53339;51.378;0.094;2022-12-29T14:01:55;3.50;;;1.10;;
26253;SDS011;53339;51.378;0.094;2022-12-29T14:04:30;5.57;;;1.58;;
26253;SDS011;53339;51.378;0.094;2022-12-29T14:07:06;5.03;;;1.52;;
26253;SDS011;53339;51.378;0.094;2022-12-29T14:09:46;5.38;;;1.50;;
26253;SDS011;53339;51.378;0.094;2022-12-29T14:17:45;5.70;;;1.60;;
26253;SDS011;53339;51.378;0.094;2022-12-29T14:21:00;3.08;;;1.55;;
26253;SDS011;53339;51.378;0.094;2022-12-29T14:23:45;3.50;;;1.88;;
26253;SDS011;53339;51.378;0.094;2022-12-29T14:26:15;9.38;;;2.13;;
26253;SDS011;53339;51.378;0.094;2022-12-29T14:28:46;7.55;;;1.70;;
26253;SDS011;53339;51.378;0.094;2022-12-29T14:36:36;3.10;;;1.92;;
26253;SDS011;53339;51.378;0.094;2022-12-29T14:39:26;5.93;;;1.92;;
26253;SDS011;53339;51.378;0.094;2022-12-29T14:42:05;7.40;;;1.35;;
26253;SDS011;53339;51.378;0.094;2022-12-29T14:44:33;5.43;;;2.33;;
26253;SDS011;53339;51.378;0.094;2022-12-29T14:47:15;5.22;;;1.45;;
26253;SDS011;53339;51.378;0.094;2022-12-29T14:49:54;6.32;;;1.80;;
26253;SDS011;53339;51.378;0.094;2022-12-29T14:52:23;4.10;;;1.55;;
26253;SDS011;53339;51.378;0.094;2022-12-29T14:57:48;5.95;;;2.08;;
26253;SDS011;53339;51.378;0.094;2022-12-29T15:00:19;6.07;;;2.08;;
26253;SDS011;53339;51.378;0.094;2022-12-29T15:08:37;7.03;;;1.48;;
26253;SDS011;53339;51.378;0.094;2022-12-29T15:11:22;5.20;;;1.33;;
26253;SDS011;53339;51.378;0.094;2022-12-29T15:17:01;4.38;;;1.35;;
26253;SDS011;53339;51.378;0.094;2022-12-29T15:19:36;5.85;;;1.15;;
26253;SDS011;53339;51.378;0.094;2022-12-29T15:22:04;8.02;;;1.98;;
26253;SDS011;53339;51.378;0.094;2022-12-29T15:24:32;4.25;;;2.00;;
26253;SDS011;53339;51.378;0.094;2022-12-29T15:27:06;2.20;;;1.25;;
26253;SDS011;53339;51.378;0.094;2022-12-29T15:32:14;7.97;;;1.60;;
26253;SDS011;53339;51.378;0.094;2022-12-29T15:34:43;10.05;;;2.28;;
26253;SDS011;53339;51.378;0.094;2022-12-29T15:39:44;12.20;;;2.00;;
26253;SDS011;53339;51.378;0.094;2022-12-29T15:44:54;5.43;;;2.15;;
26253;SDS011;53339;51.378;0.094;2022-12-29T15:47:35;6.40;;;1.48;;
26253;SDS011;53339;51.378;0.094;2022-12-29T15:50:07;3.22;;;1.88;;
26253;SDS011;53339;51.378;0.094;2022-12-29T15:52:42;5.30;;;1.60;;
26253;SDS011;53339;51.378;0.094;2022-12-29T15:55:44;6.57;;;2.15;;
26253;SDS011;53339;51.378;0.094;2022-12-29T15:58:17;7.43;;;2.05;;
26253;SDS011;53339;51.378;0.094;2022-12-29T16:00:48;8.77;;;1.60;;
26253;SDS011;53339;51.378;0.094;2022-12-29T16:03:20;3.65;;;2.42;;
26253;SDS011;53339;51.378;0.094;2022-12-29T16:05:51;1.45;;;0.85;;
26253;SDS011;53339;51.378;0.094;2022-12-29T16:08:28;5.55;;;1.98;;
26253;SDS011;53339;51.378;0.094;2022-12-29T16:11:24;4.75;;;1.50;;
26253;SDS011;53339;51.378;0.094;2022-12-29T16:13:55;6.68;;;1.83;;
26253;SDS011;53339;51.378;0.094;2022-12-29T16:16:27;4.63;;;1.45;;
26253;SDS011;53339;51.378;0.094;2022-12-29T16:18:58;5.50;;;1.45;;
26253;SDS011;53339;51.378;0.094;2022-12-29T16:21:30;5.80;;;1.60;;
26253;SDS011;53339;51.378;0.094;2022-12-29T16:24:02;5.07;;;1.13;;
26253;SDS011;53339;51.378;0.094;2022-12-29T16:26:33;5.90;;;1.70;;
26253;SDS011;53339;51.378;0.094;2022-12-29T16:29:01;8.40;;;1.42;;
26253;SDS011;53339;51.378;0.094;2022-12-29T16:31:34;4.93;;;1.38;;
26253;SDS011;53339;51.378;0.094;2022-12-29T16:34:31;4.18;;;2.22;;
26253;SDS011;53339;51.378;0.094;2022-12-29T16:37:00;4.93;;;1.90;;
26253;SDS011;53339;51.378;0.094;2022-12-29T16:39:30;4.53;;;2.10;;
26253;SDS011;53339;51.378;0.094;2022-12-29T16:47:49;9.18;;;2.35;;
26253;SDS011;53339;51.378;0.094;2022-12-29T16:50:37;5.28;;;1.27;;
26253;SDS011;53339;51.378;0.094;2022-12-29T16:53:15;10.18;;;1.92;;
26253;SDS011;53339;51.378;0.094;2022-12-29T16:55:52;5.45;;;1.73;;
26253;SDS011;53339;51.378;0.094;2022-12-29T16:58:22;8.43;;;1.80;;
26253;SDS011;53339;51.378;0.094;2022-12-29T17:00:55;11.65;;;1.90;;
26253;SDS011;53339;51.378;0.094;2022-12-29T17:03:31;4.22;;;1.70;;
26253;SDS011;53339;51.378;0.094;2022-12-29T17:06:04;6.00;;;1.63;;
26253;SDS011;53339;51.378;0.094;2022-12-29T17:08:39;3.78;;;1.45;;
26253;SDS011;53339;51.378;0.094;2022-12-29T17:11:15;6.63;;;1.70;;
26253;SDS011;53339;51.378;0.094;2022-12-29T17:14:04;11.48;;;1.92;;
26253;SDS011;53339;51.378;0.094;2022-12-29T17:16:38;5.93;;;1.52;;
26253;SDS011;53339;51.378;0.094;2022-12-29T17:19:07;8.07;;;1.30;;
26253;SDS011;53339;51.378;0.094;2022-12-29T17:21:38;8.48;;;2.80;;
26253;SDS011;53339;51.378;0.094;2022-12-29T17:24:11;4.45;;;1.88;;
26253;SDS011;53339;51.378;0.094;2022-12-29T17:26:45;6.63;;;2.00;;
26253;SDS011;53339;51.378;0.094;2022-12-29T17:29:29;6.53;;;2.38;;
26253;SDS011;53339;51.378;0.094;2022-12-29T17:32:06;6.07;;;1.50;;
26253;SDS011;53339;51.378;0.094;2022-12-29T17:34:39;5.13;;;1.17;;
26253;SDS011;53339;51.378;0.094;2022-12-29T17:37:27;5.85;;;1.50;;
26253;SDS011;53339;51.378;0.094;2022-12-29T17:40:03;10.10;;;2.67;;
26253;SDS011;53339;51.378;0.094;2022-12-29T17:42:32;7.68;;;1.33;;
26253;SDS011;53339;51.378;0.094;2022-12-29T17:45:04;3.83;;;1.52;;
26253;SDS011;53339;51.378;0.094;2022-12-29T17:47:32;6.70;;;2.00;;
26253;SDS011;53339;51.378;0.094;2022-12-29T17:49:59;5.47;;;1.95;;
26253;SDS011;53339;51.378;0.094;2022-12-29T17:52:26;6.05;;;1.70;;
26253;SDS011;53339;51.378;0.094;2022-12-29T17:54:54;6.95;;;1.75;;
26253;SDS011;53339;51.378;0.094;2022-12-29T17:57:22;4.07;;;3.33;;